sensor_id;sensor_type;location;lat;lon;timestamp;P1;durP1;ratioP1;P2;durP2;ratioP2
12871;SDS011;6504;53.766;9.626;2023-04-07T00:01:03;12.70;;;11.33;;
12871;SDS011;6504;53.766;9.626;2023-04-07T00:03:31;12.37;;;10.40;;
12871;SDS011;6504;53.766;9.626;2023-04-07T00:06:00;13.07;;;10.47;;
12871;SDS011;6504;53.766;9.626;2023-04-07T00:08:28;11.43;;;10.33;;
12871;SDS011;6504;53.766;9.626;2023-04-07T00:10:57;11.73;;;10.63;;
12871;SDS011;6504;53.766;9.626;2023-04-07T00:13:25;12.80;;;10.37;;
12871;SDS011;6504;53.766;9.626;2023-04-07T00:15:55;12.07;;;10.93;;
12871;SDS011;6504;53.766;9.626;2023-04-07T00:18:23;11.87;;;10.67;;
12871;SDS011;6504;53.766;9.626;2023-04-07T00:20:51;11.37;;;10.27;;
12871;SDS011;6504;53.766;9.626;2023-04-07T00:23:19;11.57;;;10.43;;
12871;SDS011;6504;53.766;9.626;2023-04-07T00:25:47;11.87;;;10.60;;
12871;SDS011;6504;53.766;9.626;2023-04-07T00:28:17;11.80;;;10.37;;
12871;SDS011;6504;53.766;9.626;2023-04-07T00:30:45;10.90;;;9.90;;
12871;SDS011;6504;53.766;9.626;2023-04-07T00:33:13;10.33;;;9.30;;
12871;SDS011;6504;53.766;9.626;2023-04-07T00:35:41;10.70;;;9.70;;
12871;SDS011;6504;53.766;9.626;2023-04-07T00:38:09;11.23;;;9.83;;
12871;SDS011;6504;53.766;9.626;2023-04-07T00:40:37;10.57;;;9.57;;
12871;SDS011;6504;53.766;9.626;2023-04-07T00:43:05;11.57;;;10.27;;
12871;SDS011;6504;53.766;9.626;2023-04-07T00:45:35;10.27;;;9.27;;
12871;SDS011;6504;53.766;9.626;2023-04-07T00:48:04;11.87;;;10.67;;
12871;SDS011;6504;53.766;9.626;2023-04-07T00:50:32;11.23;;;10.13;;
12871;SDS011;6504;53.766;9.626;2023-04-07T00:53:00;10.27;;;9.13;;
12871;SDS011;6504;53.766;9.626;2023-04-07T00:55:31;10.97;;;9.87;;
12871;SDS011;6504;53.766;9.626;2023-04-07T00:57:59;11.20;;;10.10;;
12871;SDS011;6504;53.766;9.626;2023-04-07T01:00:27;12.50;;;10.93;;
12871;SDS011;6504;53.766;9.626;2023-04-07T01:02:57;10.73;;;9.70;;
12871;SDS011;6504;53.766;9.626;2023-04-07T01:05:34;11.30;;;9.97;;
12871;SDS011;6504;53.766;9.626;2023-04-07T01:08:11;12.13;;;10.43;;
12871;SDS011;6504;53.766;9.626;2023-04-07T01:10:45;11.10;;;10.10;;
12871;SDS011;6504;53.766;9.626;2023-04-07T01:13:21;10.67;;;9.63;;
12871;SDS011;6504;53.766;9.626;2023-04-07T01:15:54;12.70;;;10.47;;
12871;SDS011;6504;53.766;9.626;2023-04-07T01:18:27;10.50;;;9.47;;
12871;SDS011;6504;53.766;9.626;2023-04-07T01:20:59;11.67;;;10.43;;
12871;SDS011;6504;53.766;9.626;2023-04-07T01:23:34;11.00;;;9.90;;
12871;SDS011;6504;53.766;9.626;2023-04-07T01:26:16;12.97;;;11.13;;
12871;SDS011;6504;53.766;9.626;2023-04-07T01:28:56;11.53;;;10.50;;
12871;SDS011;6504;53.766;9.626;2023-04-07T01:31:39;11.57;;;10.37;;
12871;SDS011;6504;53.766;9.626;2023-04-07T01:34:08;11.20;;;10.10;;
12871;SDS011;6504;53.766;9.626;2023-04-07T01:36:38;11.83;;;10.70;;
12871;SDS011;6504;53.766;9.626;2023-04-07T01:39:07;11.70;;;10.60;;
12871;SDS011;6504;53.766;9.626;2023-04-07T01:41:37;11.37;;;10.27;;
12871;SDS011;6504;53.766;9.626;2023-04-07T01:44:07;11.27;;;10.13;;
12871;SDS011;6504;53.766;9.626;2023-04-07T01:46:36;12.47;;;10.53;;
12871;SDS011;6504;53.766;9.626;2023-04-07T01:49:05;10.53;;;9.50;;
12871;SDS011;6504;53.766;9.626;2023-04-07T01:51:34;11.47;;;10.30;;
12871;SDS011;6504;53.766;9.626;2023-04-07T01:54:03;10.17;;;9.17;;
12871;SDS011;6504;53.766;9.626;2023-04-07T01:56:32;11.67;;;10.57;;
12871;SDS011;6504;53.766;9.626;2023-04-07T01:59:00;10.83;;;9.90;;
12871;SDS011;6504;53.766;9.626;2023-04-07T02:01:28;11.30;;;10.13;;
12871;SDS011;6504;53.766;9.626;2023-04-07T02:03:59;10.73;;;9.83;;
12871;SDS011;6504;53.766;9.626;2023-04-07T02:06:37;10.50;;;9.60;;
12871;SDS011;6504;53.766;9.626;2023-04-07T02:09:12;11.27;;;10.17;;
12871;SDS011;6504;53.766;9.626;2023-04-07T02:11:42;11.37;;;10.27;;
12871;SDS011;6504;53.766;9.626;2023-04-07T02:14:12;10.87;;;9.77;;
12871;SDS011;6504;53.766;9.626;2023-04-07T02:16:42;10.87;;;9.77;;
12871;SDS011;6504;53.766;9.626;2023-04-07T02:19:14;11.63;;;10.57;;
12871;SDS011;6504;53.766;9.626;2023-04-07T02:21:43;10.80;;;9.80;;
12871;SDS011;6504;53.766;9.626;2023-04-07T02:24:13;10.50;;;9.40;;
12871;SDS011;6504;53.766;9.626;2023-04-07T02:26:41;11.27;;;10.17;;
12871;SDS011;6504;53.766;9.626;2023-04-07T02:29:09;11.03;;;9.93;;
12871;SDS011;6504;53.766;9.626;2023-04-07T02:31:37;10.10;;;9.10;;
12871;SDS011;6504;53.766;9.626;2023-04-07T02:34:05;10.20;;;9.30;;
12871;SDS011;6504;53.766;9.626;2023-04-07T02:36:33;11.03;;;9.73;;
12871;SDS011;6504;53.766;9.626;2023-04-07T02:39:03;10.73;;;9.73;;
12871;SDS011;6504;53.766;9.626;2023-04-07T02:41:31;9.43;;;8.63;;
12871;SDS011;6504;53.766;9.626;2023-04-07T02:43:58;9.80;;;8.53;;
12871;SDS011;6504;53.766;9.626;2023-04-07T02:46:26;10.07;;;9.17;;
12871;SDS011;6504;53.766;9.626;2023-04-07T02:48:55;9.87;;;8.87;;
12871;SDS011;6504;53.766;9.626;2023-04-07T02:51:23;9.30;;;8.50;;
12871;SDS011;6504;53.766;9.626;2023-04-07T02:53:52;9.60;;;8.70;;
12871;SDS011;6504;53.766;9.626;2023-04-07T02:56:21;9.77;;;8.87;;
12871;SDS011;6504;53.766;9.626;2023-04-07T02:58:49;9.80;;;8.90;;
12871;SDS011;6504;53.766;9.626;2023-04-07T03:01:17;10.43;;;9.33;;
12871;SDS011;6504;53.766;9.626;2023-04-07T03:03:46;9.60;;;8.60;;
12871;SDS011;6504;53.766;9.626;2023-04-07T03:06:14;8.90;;;8.10;;
12871;SDS011;6504;53.766;9.626;2023-04-07T03:08:42;9.63;;;8.63;;
12871;SDS011;6504;53.766;9.626;2023-04-07T03:11:10;9.20;;;8.33;;
12871;SDS011;6504;53.766;9.626;2023-04-07T03:13:39;9.07;;;8.27;;
12871;SDS011;6504;53.766;9.626;2023-04-07T03:16:07;8.77;;;7.87;;
12871;SDS011;6504;53.766;9.626;2023-04-07T03:18:35;8.93;;;8.13;;
12871;SDS011;6504;53.766;9.626;2023-04-07T03:21:03;8.00;;;7.27;;
12871;SDS011;6504;53.766;9.626;2023-04-07T03:23:31;8.87;;;8.03;;
12871;SDS011;6504;53.766;9.626;2023-04-07T03:25:59;9.07;;;8.17;;
12871;SDS011;6504;53.766;9.626;2023-04-07T03:28:27;8.33;;;7.63;;
12871;SDS011;6504;53.766;9.626;2023-04-07T03:30:56;9.33;;;8.53;;
12871;SDS011;6504;53.766;9.626;2023-04-07T03:33:24;8.07;;;7.47;;
12871;SDS011;6504;53.766;9.626;2023-04-07T03:35:52;8.37;;;7.53;;
12871;SDS011;6504;53.766;9.626;2023-04-07T03:38:20;8.50;;;7.60;;
12871;SDS011;6504;53.766;9.626;2023-04-07T03:40:48;8.10;;;7.27;;
12871;SDS011;6504;53.766;9.626;2023-04-07T03:43:16;7.87;;;7.07;;
12871;SDS011;6504;53.766;9.626;2023-04-07T03:45:45;8.27;;;7.47;;
12871;SDS011;6504;53.766;9.626;2023-04-07T03:48:15;8.90;;;8.03;;
12871;SDS011;6504;53.766;9.626;2023-04-07T03:50:44;8.13;;;7.43;;
12871;SDS011;6504;53.766;9.626;2023-04-07T03:53:12;7.20;;;6.60;;
12871;SDS011;6504;53.766;9.626;2023-04-07T03:55:41;8.00;;;7.30;;
12871;SDS011;6504;53.766;9.626;2023-04-07T03:58:10;7.60;;;7.00;;
12871;SDS011;6504;53.766;9.626;2023-04-07T04:00:38;8.23;;;7.53;;
12871;SDS011;6504;53.766;9.626;2023-04-07T04:03:06;7.77;;;7.07;;
12871;SDS011;6504;53.766;9.626;2023-04-07T04:05:36;8.63;;;7.13;;
12871;SDS011;6504;53.766;9.626;2023-04-07T04:08:04;8.43;;;7.60;;
12871;SDS011;6504;53.766;9.626;2023-04-07T04:10:32;8.57;;;7.63;;
12871;SDS011;6504;53.766;9.626;2023-04-07T04:13:00;7.40;;;6.70;;
12871;SDS011;6504;53.766;9.626;2023-04-07T04:15:32;7.50;;;6.80;;
12871;SDS011;6504;53.766;9.626;2023-04-07T04:18:00;8.13;;;7.43;;
12871;SDS011;6504;53.766;9.626;2023-04-07T04:20:29;9.73;;;7.33;;
12871;SDS011;6504;53.766;9.626;2023-04-07T04:22:58;8.00;;;7.23;;
12871;SDS011;6504;53.766;9.626;2023-04-07T04:25:26;8.30;;;7.50;;
12871;SDS011;6504;53.766;9.626;2023-04-07T04:27:54;7.90;;;7.20;;
12871;SDS011;6504;53.766;9.626;2023-04-07T04:30:22;9.33;;;7.57;;
12871;SDS011;6504;53.766;9.626;2023-04-07T04:32:50;8.27;;;7.50;;
12871;SDS011;6504;53.766;9.626;2023-04-07T04:35:18;7.60;;;7.00;;
12871;SDS011;6504;53.766;9.626;2023-04-07T04:37:47;8.00;;;7.20;;
12871;SDS011;6504;53.766;9.626;2023-04-07T04:40:16;7.53;;;6.87;;
12871;SDS011;6504;53.766;9.626;2023-04-07T04:42:45;7.33;;;6.67;;
12871;SDS011;6504;53.766;9.626;2023-04-07T04:45:13;9.83;;;7.27;;
12871;SDS011;6504;53.766;9.626;2023-04-07T04:47:41;7.40;;;6.57;;
12871;SDS011;6504;53.766;9.626;2023-04-07T04:50:09;7.67;;;6.97;;
12871;SDS011;6504;53.766;9.626;2023-04-07T04:52:38;7.57;;;6.87;;
12871;SDS011;6504;53.766;9.626;2023-04-07T04:55:06;8.63;;;7.87;;
12871;SDS011;6504;53.766;9.626;2023-04-07T04:57:36;8.07;;;7.37;;
12871;SDS011;6504;53.766;9.626;2023-04-07T05:00:05;8.00;;;7.30;;
12871;SDS011;6504;53.766;9.626;2023-04-07T05:02:35;8.40;;;7.60;;
12871;SDS011;6504;53.766;9.626;2023-04-07T05:05:04;7.17;;;6.47;;
12871;SDS011;6504;53.766;9.626;2023-04-07T05:07:32;7.40;;;6.70;;
12871;SDS011;6504;53.766;9.626;2023-04-07T05:10:01;7.80;;;7.00;;
12871;SDS011;6504;53.766;9.626;2023-04-07T05:12:29;8.17;;;7.47;;
12871;SDS011;6504;53.766;9.626;2023-04-07T05:14:58;7.87;;;6.77;;
12871;SDS011;6504;53.766;9.626;2023-04-07T05:17:26;8.00;;;6.97;;
12871;SDS011;6504;53.766;9.626;2023-04-07T05:19:54;7.17;;;6.47;;
12871;SDS011;6504;53.766;9.626;2023-04-07T05:22:22;7.80;;;7.03;;
12871;SDS011;6504;53.766;9.626;2023-04-07T05:24:50;7.77;;;7.07;;
12871;SDS011;6504;53.766;9.626;2023-04-07T05:27:18;7.63;;;6.93;;
12871;SDS011;6504;53.766;9.626;2023-04-07T05:29:46;7.70;;;7.07;;
12871;SDS011;6504;53.766;9.626;2023-04-07T05:32:15;6.90;;;6.20;;
12871;SDS011;6504;53.766;9.626;2023-04-07T05:34:44;9.13;;;7.77;;
12871;SDS011;6504;53.766;9.626;2023-04-07T05:37:12;7.37;;;6.77;;
12871;SDS011;6504;53.766;9.626;2023-04-07T05:39:40;8.90;;;7.10;;
12871;SDS011;6504;53.766;9.626;2023-04-07T05:42:08;8.10;;;7.30;;
12871;SDS011;6504;53.766;9.626;2023-04-07T05:44:36;8.17;;;7.37;;
12871;SDS011;6504;53.766;9.626;2023-04-07T05:47:04;7.37;;;6.67;;
12871;SDS011;6504;53.766;9.626;2023-04-07T05:49:35;7.93;;;7.13;;
12871;SDS011;6504;53.766;9.626;2023-04-07T05:52:11;7.57;;;6.87;;
12871;SDS011;6504;53.766;9.626;2023-04-07T05:54:39;8.40;;;7.63;;
12871;SDS011;6504;53.766;9.626;2023-04-07T05:57:07;7.60;;;6.87;;
12871;SDS011;6504;53.766;9.626;2023-04-07T05:59:35;8.27;;;6.87;;
12871;SDS011;6504;53.766;9.626;2023-04-07T06:02:03;7.67;;;6.83;;
12871;SDS011;6504;53.766;9.626;2023-04-07T06:04:31;8.40;;;6.80;;
12871;SDS011;6504;53.766;9.626;2023-04-07T06:07:02;8.10;;;7.30;;
12871;SDS011;6504;53.766;9.626;2023-04-07T06:09:30;7.50;;;6.80;;
12871;SDS011;6504;53.766;9.626;2023-04-07T06:11:58;7.67;;;6.87;;
12871;SDS011;6504;53.766;9.626;2023-04-07T06:14:30;8.40;;;7.60;;
12871;SDS011;6504;53.766;9.626;2023-04-07T06:16:58;7.73;;;6.93;;
12871;SDS011;6504;53.766;9.626;2023-04-07T06:19:26;7.60;;;6.00;;
12871;SDS011;6504;53.766;9.626;2023-04-07T06:21:54;7.50;;;6.80;;
12871;SDS011;6504;53.766;9.626;2023-04-07T06:24:23;7.67;;;6.90;;
12871;SDS011;6504;53.766;9.626;2023-04-07T06:26:52;7.17;;;6.47;;
12871;SDS011;6504;53.766;9.626;2023-04-07T06:29:21;7.40;;;6.60;;
12871;SDS011;6504;53.766;9.626;2023-04-07T06:31:49;7.03;;;6.23;;
12871;SDS011;6504;53.766;9.626;2023-04-07T06:34:17;7.20;;;6.43;;
12871;SDS011;6504;53.766;9.626;2023-04-07T06:36:45;7.40;;;6.70;;
12871;SDS011;6504;53.766;9.626;2023-04-07T06:39:13;6.77;;;6.13;;
12871;SDS011;6504;53.766;9.626;2023-04-07T06:41:43;7.07;;;6.37;;
12871;SDS011;6504;53.766;9.626;2023-04-07T06:44:12;7.53;;;6.60;;
12871;SDS011;6504;53.766;9.626;2023-04-07T06:46:40;9.13;;;6.50;;
12871;SDS011;6504;53.766;9.626;2023-04-07T06:49:09;7.67;;;6.53;;
12871;SDS011;6504;53.766;9.626;2023-04-07T06:51:37;6.47;;;5.83;;
12871;SDS011;6504;53.766;9.626;2023-04-07T06:54:05;6.53;;;5.93;;
12871;SDS011;6504;53.766;9.626;2023-04-07T06:56:38;8.13;;;6.07;;
12871;SDS011;6504;53.766;9.626;2023-04-07T06:59:07;6.77;;;6.17;;
12871;SDS011;6504;53.766;9.626;2023-04-07T07:01:36;6.57;;;5.97;;
12871;SDS011;6504;53.766;9.626;2023-04-07T07:04:04;6.80;;;6.10;;
12871;SDS011;6504;53.766;9.626;2023-04-07T07:06:32;7.93;;;6.47;;
12871;SDS011;6504;53.766;9.626;2023-04-07T07:09:00;6.57;;;5.97;;
12871;SDS011;6504;53.766;9.626;2023-04-07T07:11:29;7.47;;;6.67;;
12871;SDS011;6504;53.766;9.626;2023-04-07T07:13:57;7.47;;;6.50;;
12871;SDS011;6504;53.766;9.626;2023-04-07T07:16:26;6.67;;;6.07;;
12871;SDS011;6504;53.766;9.626;2023-04-07T07:18:54;7.43;;;6.73;;
12871;SDS011;6504;53.766;9.626;2023-04-07T07:21:22;7.10;;;5.97;;
12871;SDS011;6504;53.766;9.626;2023-04-07T07:23:51;9.07;;;6.63;;
12871;SDS011;6504;53.766;9.626;2023-04-07T07:26:19;7.60;;;6.60;;
12871;SDS011;6504;53.766;9.626;2023-04-07T07:28:47;7.27;;;6.50;;
12871;SDS011;6504;53.766;9.626;2023-04-07T07:31:15;6.73;;;6.10;;
12871;SDS011;6504;53.766;9.626;2023-04-07T07:33:45;8.50;;;6.50;;
12871;SDS011;6504;53.766;9.626;2023-04-07T07:36:15;6.67;;;6.03;;
12871;SDS011;6504;53.766;9.626;2023-04-07T07:38:43;7.17;;;6.20;;
12871;SDS011;6504;53.766;9.626;2023-04-07T07:41:11;7.63;;;6.83;;
12871;SDS011;6504;53.766;9.626;2023-04-07T07:43:39;7.33;;;6.53;;
12871;SDS011;6504;53.766;9.626;2023-04-07T07:46:08;6.97;;;6.23;;
12871;SDS011;6504;53.766;9.626;2023-04-07T07:48:36;6.27;;;5.60;;
12871;SDS011;6504;53.766;9.626;2023-04-07T07:51:05;6.73;;;5.90;;
12871;SDS011;6504;53.766;9.626;2023-04-07T07:53:33;6.10;;;5.50;;
12871;SDS011;6504;53.766;9.626;2023-04-07T07:56:01;7.03;;;6.33;;
12871;SDS011;6504;53.766;9.626;2023-04-07T07:58:29;6.90;;;5.87;;
12871;SDS011;6504;53.766;9.626;2023-04-07T08:00:57;6.87;;;6.17;;
12871;SDS011;6504;53.766;9.626;2023-04-07T08:03:25;6.83;;;5.90;;
12871;SDS011;6504;53.766;9.626;2023-04-07T08:05:54;5.60;;;5.03;;
12871;SDS011;6504;53.766;9.626;2023-04-07T08:08:23;5.87;;;5.20;;
12871;SDS011;6504;53.766;9.626;2023-04-07T08:10:51;6.73;;;5.70;;
12871;SDS011;6504;53.766;9.626;2023-04-07T08:13:19;6.43;;;5.47;;
12871;SDS011;6504;53.766;9.626;2023-04-07T08:15:48;6.83;;;5.43;;
12871;SDS011;6504;53.766;9.626;2023-04-07T08:18:16;7.03;;;5.83;;
12871;SDS011;6504;53.766;9.626;2023-04-07T08:20:45;5.90;;;5.30;;
12871;SDS011;6504;53.766;9.626;2023-04-07T08:23:13;5.67;;;5.10;;
12871;SDS011;6504;53.766;9.626;2023-04-07T08:25:42;5.47;;;4.97;;
12871;SDS011;6504;53.766;9.626;2023-04-07T08:28:10;7.30;;;5.77;;
12871;SDS011;6504;53.766;9.626;2023-04-07T08:30:38;6.53;;;5.87;;
12871;SDS011;6504;53.766;9.626;2023-04-07T08:33:06;6.97;;;5.77;;
12871;SDS011;6504;53.766;9.626;2023-04-07T08:35:34;6.30;;;5.80;;
12871;SDS011;6504;53.766;9.626;2023-04-07T08:38:03;6.63;;;5.80;;
12871;SDS011;6504;53.766;9.626;2023-04-07T08:40:31;5.97;;;5.47;;
12871;SDS011;6504;53.766;9.626;2023-04-07T08:43:01;6.50;;;5.70;;
12871;SDS011;6504;53.766;9.626;2023-04-07T08:45:35;5.83;;;5.10;;
12871;SDS011;6504;53.766;9.626;2023-04-07T08:48:08;6.60;;;5.90;;
12871;SDS011;6504;53.766;9.626;2023-04-07T08:50:43;5.87;;;5.27;;
12871;SDS011;6504;53.766;9.626;2023-04-07T08:53:12;6.23;;;5.63;;
12871;SDS011;6504;53.766;9.626;2023-04-07T08:55:42;6.23;;;5.70;;
12871;SDS011;6504;53.766;9.626;2023-04-07T08:58:11;5.97;;;5.40;;
12871;SDS011;6504;53.766;9.626;2023-04-07T09:00:41;6.03;;;5.43;;
12871;SDS011;6504;53.766;9.626;2023-04-07T09:03:14;6.53;;;5.53;;
12871;SDS011;6504;53.766;9.626;2023-04-07T09:05:43;5.90;;;5.30;;
12871;SDS011;6504;53.766;9.626;2023-04-07T09:08:12;6.80;;;5.70;;
12871;SDS011;6504;53.766;9.626;2023-04-07T09:10:40;7.47;;;5.80;;
12871;SDS011;6504;53.766;9.626;2023-04-07T09:13:08;6.33;;;5.73;;
12871;SDS011;6504;53.766;9.626;2023-04-07T09:15:38;6.23;;;5.63;;
12871;SDS011;6504;53.766;9.626;2023-04-07T09:18:06;5.83;;;5.23;;
12871;SDS011;6504;53.766;9.626;2023-04-07T09:20:53;6.13;;;5.53;;
12871;SDS011;6504;53.766;9.626;2023-04-07T09:23:29;5.87;;;5.20;;
12871;SDS011;6504;53.766;9.626;2023-04-07T09:26:00;6.30;;;5.63;;
12871;SDS011;6504;53.766;9.626;2023-04-07T09:28:45;6.13;;;5.53;;
12871;SDS011;6504;53.766;9.626;2023-04-07T09:31:15;7.63;;;5.67;;
12871;SDS011;6504;53.766;9.626;2023-04-07T09:33:43;6.10;;;5.47;;
12871;SDS011;6504;53.766;9.626;2023-04-07T09:36:11;8.70;;;5.53;;
12871;SDS011;6504;53.766;9.626;2023-04-07T09:38:40;6.27;;;5.67;;
12871;SDS011;6504;53.766;9.626;2023-04-07T09:41:10;6.27;;;5.30;;
12871;SDS011;6504;53.766;9.626;2023-04-07T09:43:39;6.40;;;5.77;;
12871;SDS011;6504;53.766;9.626;2023-04-07T09:46:10;6.40;;;5.60;;
12871;SDS011;6504;53.766;9.626;2023-04-07T09:48:42;6.27;;;5.53;;
12871;SDS011;6504;53.766;9.626;2023-04-07T09:51:12;5.53;;;5.03;;
12871;SDS011;6504;53.766;9.626;2023-04-07T09:53:41;6.97;;;5.97;;
12871;SDS011;6504;53.766;9.626;2023-04-07T09:56:11;6.50;;;5.30;;
12871;SDS011;6504;53.766;9.626;2023-04-07T09:58:42;6.50;;;5.60;;
12871;SDS011;6504;53.766;9.626;2023-04-07T10:01:12;6.80;;;5.70;;
12871;SDS011;6504;53.766;9.626;2023-04-07T10:03:43;5.43;;;4.93;;
12871;SDS011;6504;53.766;9.626;2023-04-07T10:06:13;5.87;;;5.13;;
12871;SDS011;6504;53.766;9.626;2023-04-07T10:08:42;6.37;;;5.63;;
12871;SDS011;6504;53.766;9.626;2023-04-07T10:11:10;6.43;;;5.20;;
12871;SDS011;6504;53.766;9.626;2023-04-07T10:13:39;5.80;;;5.20;;
12871;SDS011;6504;53.766;9.626;2023-04-07T10:16:07;6.20;;;4.73;;
12871;SDS011;6504;53.766;9.626;2023-04-07T10:18:36;5.37;;;4.87;;
12871;SDS011;6504;53.766;9.626;2023-04-07T10:21:06;6.23;;;5.63;;
12871;SDS011;6504;53.766;9.626;2023-04-07T10:23:44;6.10;;;5.50;;
12871;SDS011;6504;53.766;9.626;2023-04-07T10:26:20;5.47;;;4.97;;
12871;SDS011;6504;53.766;9.626;2023-04-07T10:28:54;6.20;;;5.60;;
12871;SDS011;6504;53.766;9.626;2023-04-07T10:31:26;6.47;;;5.87;;
12871;SDS011;6504;53.766;9.626;2023-04-07T10:33:55;6.27;;;5.63;;
12871;SDS011;6504;53.766;9.626;2023-04-07T10:36:24;6.93;;;6.23;;
12871;SDS011;6504;53.766;9.626;2023-04-07T10:41:47;5.47;;;4.97;;
12871;SDS011;6504;53.766;9.626;2023-04-07T10:47:13;5.67;;;5.07;;
12871;SDS011;6504;53.766;9.626;2023-04-07T10:52:48;5.70;;;5.00;;
12871;SDS011;6504;53.766;9.626;2023-04-07T10:55:33;6.53;;;5.53;;
12871;SDS011;6504;53.766;9.626;2023-04-07T10:58:12;5.60;;;5.00;;
12871;SDS011;6504;53.766;9.626;2023-04-07T11:06:34;5.47;;;4.97;;
12871;SDS011;6504;53.766;9.626;2023-04-07T11:09:18;6.10;;;5.50;;
12871;SDS011;6504;53.766;9.626;2023-04-07T11:11:47;6.10;;;5.57;;
12871;SDS011;6504;53.766;9.626;2023-04-07T11:14:23;8.00;;;6.20;;
12871;SDS011;6504;53.766;9.626;2023-04-07T11:16:53;6.83;;;6.13;;
12871;SDS011;6504;53.766;9.626;2023-04-07T11:19:21;7.37;;;6.67;;
12871;SDS011;6504;53.766;9.626;2023-04-07T11:21:49;6.93;;;5.93;;
12871;SDS011;6504;53.766;9.626;2023-04-07T11:24:56;7.87;;;6.07;;
12871;SDS011;6504;53.766;9.626;2023-04-07T11:27:24;8.13;;;6.13;;
12871;SDS011;6504;53.766;9.626;2023-04-07T11:29:53;7.33;;;6.23;;
12871;SDS011;6504;53.766;9.626;2023-04-07T11:32:22;7.43;;;6.73;;
12871;SDS011;6504;53.766;9.626;2023-04-07T11:34:54;6.90;;;6.20;;
12871;SDS011;6504;53.766;9.626;2023-04-07T11:37:24;6.00;;;5.40;;
12871;SDS011;6504;53.766;9.626;2023-04-07T11:39:56;6.43;;;5.83;;
12871;SDS011;6504;53.766;9.626;2023-04-07T11:42:34;7.57;;;6.27;;
12871;SDS011;6504;53.766;9.626;2023-04-07T11:45:03;5.93;;;5.43;;
12871;SDS011;6504;53.766;9.626;2023-04-07T11:47:33;6.90;;;5.33;;
12871;SDS011;6504;53.766;9.626;2023-04-07T11:50:02;5.83;;;4.90;;
12871;SDS011;6504;53.766;9.626;2023-04-07T11:52:39;5.70;;;5.10;;
12871;SDS011;6504;53.766;9.626;2023-04-07T11:55:16;5.10;;;4.57;;
12871;SDS011;6504;53.766;9.626;2023-04-07T11:57:47;4.37;;;3.90;;
12871;SDS011;6504;53.766;9.626;2023-04-07T12:00:17;4.67;;;3.83;;
12871;SDS011;6504;53.766;9.626;2023-04-07T12:02:46;4.13;;;3.40;;
12871;SDS011;6504;53.766;9.626;2023-04-07T12:05:15;4.07;;;3.47;;
12871;SDS011;6504;53.766;9.626;2023-04-07T12:07:51;4.93;;;3.83;;
12871;SDS011;6504;53.766;9.626;2023-04-07T12:10:22;4.13;;;3.40;;
12871;SDS011;6504;53.766;9.626;2023-04-07T12:12:51;3.40;;;3.10;;
12871;SDS011;6504;53.766;9.626;2023-04-07T12:15:20;4.37;;;3.53;;
12871;SDS011;6504;53.766;9.626;2023-04-07T12:17:49;4.30;;;3.90;;
12871;SDS011;6504;53.766;9.626;2023-04-07T12:20:17;4.33;;;3.70;;
12871;SDS011;6504;53.766;9.626;2023-04-07T12:22:45;3.90;;;3.43;;
12871;SDS011;6504;53.766;9.626;2023-04-07T12:25:13;6.40;;;3.93;;
12871;SDS011;6504;53.766;9.626;2023-04-07T12:27:43;4.30;;;3.90;;
12871;SDS011;6504;53.766;9.626;2023-04-07T12:30:12;4.27;;;3.80;;
12871;SDS011;6504;53.766;9.626;2023-04-07T12:32:40;4.40;;;3.80;;
12871;SDS011;6504;53.766;9.626;2023-04-07T12:35:08;4.33;;;3.60;;
12871;SDS011;6504;53.766;9.626;2023-04-07T12:37:36;6.13;;;4.00;;
12871;SDS011;6504;53.766;9.626;2023-04-07T12:40:04;4.00;;;3.30;;
12871;SDS011;6504;53.766;9.626;2023-04-07T12:42:33;3.83;;;2.90;;
12871;SDS011;6504;53.766;9.626;2023-04-07T12:45:03;3.47;;;3.00;;
12871;SDS011;6504;53.766;9.626;2023-04-07T12:47:32;2.47;;;2.27;;
12871;SDS011;6504;53.766;9.626;2023-04-07T12:50:00;4.67;;;2.47;;
12871;SDS011;6504;53.766;9.626;2023-04-07T12:52:28;4.20;;;2.30;;
12871;SDS011;6504;53.766;9.626;2023-04-07T12:54:57;2.17;;;1.63;;
12871;SDS011;6504;53.766;9.626;2023-04-07T12:57:25;1.97;;;1.40;;
12871;SDS011;6504;53.766;9.626;2023-04-07T12:59:54;2.03;;;1.40;;
12871;SDS011;6504;53.766;9.626;2023-04-07T13:02:23;2.73;;;1.60;;
12871;SDS011;6504;53.766;9.626;2023-04-07T13:04:51;2.10;;;1.90;;
12871;SDS011;6504;53.766;9.626;2023-04-07T13:07:19;1.80;;;1.70;;
12871;SDS011;6504;53.766;9.626;2023-04-07T13:09:47;2.33;;;1.60;;
12871;SDS011;6504;53.766;9.626;2023-04-07T13:12:15;1.70;;;1.60;;
12871;SDS011;6504;53.766;9.626;2023-04-07T13:14:43;1.73;;;1.63;;
12871;SDS011;6504;53.766;9.626;2023-04-07T13:17:26;2.10;;;1.80;;
12871;SDS011;6504;53.766;9.626;2023-04-07T13:19:55;2.10;;;1.90;;
12871;SDS011;6504;53.766;9.626;2023-04-07T13:22:23;2.67;;;1.73;;
12871;SDS011;6504;53.766;9.626;2023-04-07T13:24:51;2.77;;;2.00;;
12871;SDS011;6504;53.766;9.626;2023-04-07T13:27:19;2.90;;;2.10;;
12871;SDS011;6504;53.766;9.626;2023-04-07T13:29:47;2.30;;;1.80;;
12871;SDS011;6504;53.766;9.626;2023-04-07T13:32:15;2.83;;;1.83;;
12871;SDS011;6504;53.766;9.626;2023-04-07T13:34:45;2.50;;;1.60;;
12871;SDS011;6504;53.766;9.626;2023-04-07T13:37:13;3.63;;;2.07;;
12871;SDS011;6504;53.766;9.626;2023-04-07T13:39:41;3.10;;;2.03;;
12871;SDS011;6504;53.766;9.626;2023-04-07T13:42:09;2.47;;;1.90;;
12871;SDS011;6504;53.766;9.626;2023-04-07T13:44:37;1.80;;;1.70;;
12871;SDS011;6504;53.766;9.626;2023-04-07T13:47:05;2.00;;;1.60;;
12871;SDS011;6504;53.766;9.626;2023-04-07T13:49:33;1.97;;;1.70;;
12871;SDS011;6504;53.766;9.626;2023-04-07T13:52:03;0.93;;;0.93;;
12871;SDS011;6504;53.766;9.626;2023-04-07T13:54:31;1.60;;;1.13;;
12871;SDS011;6504;53.766;9.626;2023-04-07T13:56:59;2.03;;;1.60;;
12871;SDS011;6504;53.766;9.626;2023-04-07T13:59:27;1.83;;;1.40;;
12871;SDS011;6504;53.766;9.626;2023-04-07T14:01:55;1.43;;;1.33;;
12871;SDS011;6504;53.766;9.626;2023-04-07T14:04:23;2.10;;;1.67;;
12871;SDS011;6504;53.766;9.626;2023-04-07T14:06:52;1.93;;;1.60;;
12871;SDS011;6504;53.766;9.626;2023-04-07T14:09:22;1.77;;;1.60;;
12871;SDS011;6504;53.766;9.626;2023-04-07T14:11:50;2.37;;;1.60;;
12871;SDS011;6504;53.766;9.626;2023-04-07T14:14:18;3.93;;;1.73;;
12871;SDS011;6504;53.766;9.626;2023-04-07T14:16:46;1.60;;;1.50;;
12871;SDS011;6504;53.766;9.626;2023-04-07T14:19:16;1.90;;;1.30;;
12871;SDS011;6504;53.766;9.626;2023-04-07T14:21:45;1.53;;;1.10;;
12871;SDS011;6504;53.766;9.626;2023-04-07T14:24:12;1.93;;;1.33;;
12871;SDS011;6504;53.766;9.626;2023-04-07T14:26:43;1.83;;;1.50;;
12871;SDS011;6504;53.766;9.626;2023-04-07T14:29:12;1.93;;;1.77;;
12871;SDS011;6504;53.766;9.626;2023-04-07T14:31:41;22.33;;;16.37;;
12871;SDS011;6504;53.766;9.626;2023-04-07T14:34:10;10.27;;;8.03;;
12871;SDS011;6504;53.766;9.626;2023-04-07T14:36:38;7.73;;;6.80;;
12871;SDS011;6504;53.766;9.626;2023-04-07T14:39:06;2.40;;;1.90;;
12871;SDS011;6504;53.766;9.626;2023-04-07T14:41:34;2.90;;;1.97;;
12871;SDS011;6504;53.766;9.626;2023-04-07T14:44:04;2.67;;;1.87;;
12871;SDS011;6504;53.766;9.626;2023-04-07T14:46:32;2.30;;;2.10;;
12871;SDS011;6504;53.766;9.626;2023-04-07T14:49:00;2.67;;;2.43;;
12871;SDS011;6504;53.766;9.626;2023-04-07T14:51:28;2.30;;;2.10;;
12871;SDS011;6504;53.766;9.626;2023-04-07T14:53:56;2.43;;;2.23;;
12871;SDS011;6504;53.766;9.626;2023-04-07T14:56:24;1.60;;;1.50;;
12871;SDS011;6504;53.766;9.626;2023-04-07T14:58:53;1.60;;;1.43;;
12871;SDS011;6504;53.766;9.626;2023-04-07T15:01:23;2.87;;;1.93;;
12871;SDS011;6504;53.766;9.626;2023-04-07T15:03:51;3.07;;;1.70;;
12871;SDS011;6504;53.766;9.626;2023-04-07T15:06:19;2.17;;;1.70;;
12871;SDS011;6504;53.766;9.626;2023-04-07T15:08:48;2.77;;;1.90;;
12871;SDS011;6504;53.766;9.626;2023-04-07T15:11:17;2.20;;;1.80;;
12871;SDS011;6504;53.766;9.626;2023-04-07T15:13:45;3.30;;;2.30;;
12871;SDS011;6504;53.766;9.626;2023-04-07T15:16:14;3.83;;;3.30;;
12871;SDS011;6504;53.766;9.626;2023-04-07T15:18:44;4.60;;;2.90;;
12871;SDS011;6504;53.766;9.626;2023-04-07T15:21:12;4.10;;;3.70;;
12871;SDS011;6504;53.766;9.626;2023-04-07T15:23:41;3.90;;;3.20;;
12871;SDS011;6504;53.766;9.626;2023-04-07T15:26:09;4.33;;;3.57;;